sensor_id;sensor_type;location;lat;lon;timestamp;temperature;humidity
18446;DHT22;9352;50.888;4.466;2024-02-21T00:02:10;10.00;99.90
18446;DHT22;9352;50.888;4.466;2024-02-21T00:04:37;10.00;99.90
18446;DHT22;9352;50.888;4.466;2024-02-21T00:07:04;9.90;99.90
18446;DHT22;9352;50.888;4.466;2024-02-21T00:09:31;9.90;99.90
18446;DHT22;9352;50.888;4.466;2024-02-21T00:11:59;10.00;99.90
18446;DHT22;9352;50.888;4.466;2024-02-21T00:14:26;10.00;99.90
18446;DHT22;9352;50.888;4.466;2024-02-21T00:16:53;10.00;99.90
18446;DHT22;9352;50.888;4.466;2024-02-21T00:19:20;9.90;99.90
18446;DHT22;9352;50.888;4.466;2024-02-21T00:21:47;10.00;99.90
18446;DHT22;9352;50.888;4.466;2024-02-21T00:24:14;10.00;99.90
18446;DHT22;9352;50.888;4.466;2024-02-21T00:26:41;10.00;99.90
18446;DHT22;9352;50.888;4.466;2024-02-21T00:29:10;9.90;99.90
18446;DHT22;9352;50.888;4.466;2024-02-21T00:31:36;10.00;99.90
18446;DHT22;9352;50.888;4.466;2024-02-21T00:34:03;10.00;99.90
18446;DHT22;9352;50.888;4.466;2024-02-21T00:36:30;10.00;99.90
18446;DHT22;9352;50.888;4.466;2024-02-21T00:38:57;10.00;99.90
18446;DHT22;9352;50.888;4.466;2024-02-21T00:41:24;10.00;99.90
18446;DHT22;9352;50.888;4.466;2024-02-21T00:43:51;10.00;99.90
18446;DHT22;9352;50.888;4.466;2024-02-21T00:46:19;10.00;99.90
18446;DHT22;9352;50.888;4.466;2024-02-21T00:48:46;10.00;99.90
18446;DHT22;9352;50.888;4.466;2024-02-21T00:51:13;10.00;99.90
18446;DHT22;9352;50.888;4.466;2024-02-21T00:53:40;10.00;99.90
18446;DHT22;9352;50.888;4.466;2024-02-21T00:56:07;10.00;99.90
18446;DHT22;9352;50.888;4.466;2024-02-21T00:58:34;10.00;99.90
18446;DHT22;9352;50.888;4.466;2024-02-21T01:01:01;10.00;99.90
18446;DHT22;9352;50.888;4.466;2024-02-21T01:03:30;10.00;99.90
18446;DHT22;9352;50.888;4.466;2024-02-21T01:05:57;10.00;99.90
18446;DHT22;9352;50.888;4.466;2024-02-21T01:08:23;9.90;99.90
18446;DHT22;9352;50.888;4.466;2024-02-21T01:10:50;10.00;99.90
18446;DHT22;9352;50.888;4.466;2024-02-21T01:13:17;10.00;99.90
18446;DHT22;9352;50.888;4.466;2024-02-21T01:15:44;10.00;99.90
18446;DHT22;9352;50.888;4.466;2024-02-21T01:18:11;10.00;99.90
18446;DHT22;9352;50.888;4.466;2024-02-21T01:20:39;10.00;99.90
18446;DHT22;9352;50.888;4.466;2024-02-21T01:23:06;10.00;99.90
18446;DHT22;9352;50.888;4.466;2024-02-21T01:25:33;9.90;99.90
18446;DHT22;9352;50.888;4.466;2024-02-21T01:28:00;10.00;99.90
18446;DHT22;9352;50.888;4.466;2024-02-21T01:30:27;9.90;99.90
18446;DHT22;9352;50.888;4.466;2024-02-21T01:32:54;9.90;99.90
18446;DHT22;9352;50.888;4.466;2024-02-21T01:35:21;9.90;99.90
18446;DHT22;9352;50.888;4.466;2024-02-21T01:37:49;9.80;99.90
18446;DHT22;9352;50.888;4.466;2024-02-21T01:40:17;9.70;99.90
18446;DHT22;9352;50.888;4.466;2024-02-21T01:42:44;9.60;99.90
18446;DHT22;9352;50.888;4.466;2024-02-21T01:45:13;9.50;99.90
18446;DHT22;9352;50.888;4.466;2024-02-21T01:47:40;9.50;99.90
18446;DHT22;9352;50.888;4.466;2024-02-21T01:50:08;9.50;99.90
18446;DHT22;9352;50.888;4.466;2024-02-21T01:52:36;9.50;99.90
18446;DHT22;9352;50.888;4.466;2024-02-21T01:55:06;9.50;99.90
18446;DHT22;9352;50.888;4.466;2024-02-21T01:57:34;9.40;99.90
18446;DHT22;9352;50.888;4.466;2024-02-21T02:00:01;9.40;99.90
18446;DHT22;9352;50.888;4.466;2024-02-21T02:02:28;9.40;99.90
18446;DHT22;9352;50.888;4.466;2024-02-21T02:04:56;9.40;99.90
18446;DHT22;9352;50.888;4.466;2024-02-21T02:07:23;9.40;99.90
18446;DHT22;9352;50.888;4.466;2024-02-21T02:09:50;9.40;99.90
18446;DHT22;9352;50.888;4.466;2024-02-21T02:12:18;9.50;99.90
18446;DHT22;9352;50.888;4.466;2024-02-21T02:14:45;9.50;99.90
18446;DHT22;9352;50.888;4.466;2024-02-21T02:17:12;9.50;99.90
18446;DHT22;9352;50.888;4.466;2024-02-21T02:19:40;9.50;99.90
18446;DHT22;9352;50.888;4.466;2024-02-21T02:22:10;9.50;99.90
18446;DHT22;9352;50.888;4.466;2024-02-21T02:24:41;9.50;99.90
18446;DHT22;9352;50.888;4.466;2024-02-21T02:27:08;9.50;99.90
18446;DHT22;9352;50.888;4.466;2024-02-21T02:29:35;9.60;99.90
18446;DHT22;9352;50.888;4.466;2024-02-21T02:32:02;9.60;99.90
18446;DHT22;9352;50.888;4.466;2024-02-21T02:34:29;9.60;99.90
18446;DHT22;9352;50.888;4.466;2024-02-21T02:36:56;9.60;99.90
18446;DHT22;9352;50.888;4.466;2024-02-21T02:39:23;9.60;99.90
18446;DHT22;9352;50.888;4.466;2024-02-21T02:41:51;9.60;99.90
18446;DHT22;9352;50.888;4.466;2024-02-21T02:44:18;9.60;99.90
18446;DHT22;9352;50.888;4.466;2024-02-21T02:46:45;9.70;99.90
18446;DHT22;9352;50.888;4.466;2024-02-21T02:49:12;9.70;99.90
18446;DHT22;9352;50.888;4.466;2024-02-21T02:51:41;9.70;99.90
18446;DHT22;9352;50.888;4.466;2024-02-21T02:54:09;9.70;99.90
18446;DHT22;9352;50.888;4.466;2024-02-21T02:56:35;9.70;99.90
18446;DHT22;9352;50.888;4.466;2024-02-21T02:59:04;9.70;99.90
18446;DHT22;9352;50.888;4.466;2024-02-21T03:01:34;9.70;99.90
18446;DHT22;9352;50.888;4.466;2024-02-21T03:04:00;9.70;99.90
18446;DHT22;9352;50.888;4.466;2024-02-21T03:06:27;9.70;99.90
18446;DHT22;9352;50.888;4.466;2024-02-21T03:08:54;9.70;99.90
18446;DHT22;9352;50.888;4.466;2024-02-21T03:11:21;9.70;99.90
18446;DHT22;9352;50.888;4.466;2024-02-21T03:13:54;9.70;99.90
18446;DHT22;9352;50.888;4.466;2024-02-21T03:16:23;9.70;99.90
18446;DHT22;9352;50.888;4.466;2024-02-21T03:18:50;9.70;99.90
18446;DHT22;9352;50.888;4.466;2024-02-21T03:21:17;9.70;99.90
18446;DHT22;9352;50.888;4.466;2024-02-21T03:23:44;9.70;99.90
18446;DHT22;9352;50.888;4.466;2024-02-21T03:26:11;9.80;99.90
18446;DHT22;9352;50.888;4.466;2024-02-21T03:28:37;9.80;99.90
18446;DHT22;9352;50.888;4.466;2024-02-21T03:31:05;9.80;99.90
18446;DHT22;9352;50.888;4.466;2024-02-21T03:33:33;9.80;99.90
18446;DHT22;9352;50.888;4.466;2024-02-21T03:36:00;9.70;99.90
18446;DHT22;9352;50.888;4.466;2024-02-21T03:38:27;9.80;99.90
18446;DHT22;9352;50.888;4.466;2024-02-21T03:40:54;9.80;99.90
18446;DHT22;9352;50.888;4.466;2024-02-21T03:43:21;9.80;99.90
18446;DHT22;9352;50.888;4.466;2024-02-21T03:45:47;9.80;99.90
18446;DHT22;9352;50.888;4.466;2024-02-21T03:48:14;9.80;99.90
18446;DHT22;9352;50.888;4.466;2024-02-21T03:50:43;9.80;99.90
18446;DHT22;9352;50.888;4.466;2024-02-21T03:53:10;9.80;99.90
18446;DHT22;9352;50.888;4.466;2024-02-21T03:55:38;9.80;99.90
18446;DHT22;9352;50.888;4.466;2024-02-21T03:58:04;9.80;99.90
18446;DHT22;9352;50.888;4.466;2024-02-21T04:00:31;9.80;99.90
18446;DHT22;9352;50.888;4.466;2024-02-21T04:02:58;9.80;99.90
18446;DHT22;9352;50.888;4.466;2024-02-21T04:05:25;9.70;99.90
18446;DHT22;9352;50.888;4.466;2024-02-21T04:07:53;9.70;99.90
18446;DHT22;9352;50.888;4.466;2024-02-21T04:10:20;9.70;99.90
18446;DHT22;9352;50.888;4.466;2024-02-21T04:12:47;9.60;99.90
18446;DHT22;9352;50.888;4.466;2024-02-21T04:15:15;9.60;99.90
18446;DHT22;9352;50.888;4.466;2024-02-21T04:17:42;9.60;99.90
18446;DHT22;9352;50.888;4.466;2024-02-21T04:20:15;9.60;99.90
18446;DHT22;9352;50.888;4.466;2024-02-21T04:22:43;9.60;99.90
18446;DHT22;9352;50.888;4.466;2024-02-21T04:25:11;9.60;99.90
18446;DHT22;9352;50.888;4.466;2024-02-21T04:27:39;9.60;99.90
18446;DHT22;9352;50.888;4.466;2024-02-21T04:30:07;9.60;99.90
18446;DHT22;9352;50.888;4.466;2024-02-21T04:32:35;9.60;99.90
18446;DHT22;9352;50.888;4.466;2024-02-21T04:35:02;9.60;99.90
18446;DHT22;9352;50.888;4.466;2024-02-21T04:37:29;9.60;99.90
18446;DHT22;9352;50.888;4.466;2024-02-21T04:39:56;9.60;99.90
18446;DHT22;9352;50.888;4.466;2024-02-21T04:42:24;9.50;99.90
18446;DHT22;9352;50.888;4.466;2024-02-21T04:44:51;9.60;99.90
18446;DHT22;9352;50.888;4.466;2024-02-21T04:47:19;9.60;99.90
18446;DHT22;9352;50.888;4.466;2024-02-21T04:49:46;9.50;99.90
18446;DHT22;9352;50.888;4.466;2024-02-21T04:52:12;9.50;99.90
18446;DHT22;9352;50.888;4.466;2024-02-21T04:54:39;9.50;99.90
18446;DHT22;9352;50.888;4.466;2024-02-21T04:57:06;9.50;99.90
18446;DHT22;9352;50.888;4.466;2024-02-21T04:59:37;9.60;99.90
18446;DHT22;9352;50.888;4.466;2024-02-21T05:02:04;9.50;99.90
18446;DHT22;9352;50.888;4.466;2024-02-21T05:04:31;9.60;99.90
18446;DHT22;9352;50.888;4.466;2024-02-21T05:07:00;9.60;99.90
18446;DHT22;9352;50.888;4.466;2024-02-21T05:09:26;9.60;99.90
18446;DHT22;9352;50.888;4.466;2024-02-21T05:11:53;9.60;99.90
18446;DHT22;9352;50.888;4.466;2024-02-21T05:14:20;9.60;99.90
18446;DHT22;9352;50.888;4.466;2024-02-21T05:16:48;9.60;99.90
18446;DHT22;9352;50.888;4.466;2024-02-21T05:19:15;9.60;99.90
18446;DHT22;9352;50.888;4.466;2024-02-21T05:21:42;9.60;99.90
18446;DHT22;9352;50.888;4.466;2024-02-21T05:24:09;9.60;99.90
18446;DHT22;9352;50.888;4.466;2024-02-21T05:26:36;9.60;99.90
18446;DHT22;9352;50.888;4.466;2024-02-21T05:29:03;9.60;99.90
18446;DHT22;9352;50.888;4.466;2024-02-21T05:31:55;9.60;99.90
18446;DHT22;9352;50.888;4.466;2024-02-21T05:34:24;9.60;99.90
18446;DHT22;9352;50.888;4.466;2024-02-21T05:36:51;9.60;99.90
18446;DHT22;9352;50.888;4.466;2024-02-21T05:39:18;9.60;99.90
18446;DHT22;9352;50.888;4.466;2024-02-21T05:41:45;9.60;99.90
18446;DHT22;9352;50.888;4.466;2024-02-21T05:44:12;9.60;99.90
18446;DHT22;9352;50.888;4.466;2024-02-21T05:46:39;9.50;99.90
18446;DHT22;9352;50.888;4.466;2024-02-21T05:49:06;9.50;99.90
18446;DHT22;9352;50.888;4.466;2024-02-21T05:51:34;9.60;99.90
18446;DHT22;9352;50.888;4.466;2024-02-21T05:54:01;9.60;99.90
18446;DHT22;9352;50.888;4.466;2024-02-21T05:56:28;9.60;99.90
18446;DHT22;9352;50.888;4.466;2024-02-21T05:58:55;9.60;99.90
18446;DHT22;9352;50.888;4.466;2024-02-21T06:01:22;9.60;99.90
18446;DHT22;9352;50.888;4.466;2024-02-21T06:03:49;9.60;99.90
18446;DHT22;9352;50.888;4.466;2024-02-21T06:06:16;9.60;99.90
18446;DHT22;9352;50.888;4.466;2024-02-21T06:08:44;9.60;99.90
18446;DHT22;9352;50.888;4.466;2024-02-21T06:11:12;9.60;99.90
18446;DHT22;9352;50.888;4.466;2024-02-21T06:13:40;9.60;99.90
18446;DHT22;9352;50.888;4.466;2024-02-21T06:16:07;9.60;99.90
18446;DHT22;9352;50.888;4.466;2024-02-21T06:18:35;9.60;99.90
18446;DHT22;9352;50.888;4.466;2024-02-21T06:21:02;9.60;99.90
18446;DHT22;9352;50.888;4.466;2024-02-21T06:23:29;9.60;99.90
18446;DHT22;9352;50.888;4.466;2024-02-21T06:25:58;9.70;99.90
18446;DHT22;9352;50.888;4.466;2024-02-21T06:28:24;9.70;99.90
18446;DHT22;9352;50.888;4.466;2024-02-21T06:30:52;9.70;99.90
18446;DHT22;9352;50.888;4.466;2024-02-21T06:33:19;9.70;99.90
18446;DHT22;9352;50.888;4.466;2024-02-21T06:35:48;9.70;99.90
18446;DHT22;9352;50.888;4.466;2024-02-21T06:38:17;9.70;99.90
18446;DHT22;9352;50.888;4.466;2024-02-21T06:40:44;9.70;99.90
18446;DHT22;9352;50.888;4.466;2024-02-21T06:43:17;9.80;99.90
18446;DHT22;9352;50.888;4.466;2024-02-21T06:45:44;9.80;99.90
18446;DHT22;9352;50.888;4.466;2024-02-21T06:48:13;9.80;99.90
18446;DHT22;9352;50.888;4.466;2024-02-21T06:50:40;9.80;99.90
18446;DHT22;9352;50.888;4.466;2024-02-21T06:53:07;9.80;99.90
18446;DHT22;9352;50.888;4.466;2024-02-21T06:55:34;9.80;99.90
18446;DHT22;9352;50.888;4.466;2024-02-21T06:58:01;9.80;99.90
18446;DHT22;9352;50.888;4.466;2024-02-21T07:00:29;9.90;99.90
18446;DHT22;9352;50.888;4.466;2024-02-21T07:02:56;9.90;99.90
18446;DHT22;9352;50.888;4.466;2024-02-21T07:05:23;9.90;99.90
18446;DHT22;9352;50.888;4.466;2024-02-21T07:07:50;9.90;99.90
18446;DHT22;9352;50.888;4.466;2024-02-21T07:10:17;9.90;99.90
18446;DHT22;9352;50.888;4.466;2024-02-21T07:12:44;9.90;99.90
18446;DHT22;9352;50.888;4.466;2024-02-21T07:15:11;9.90;99.90
18446;DHT22;9352;50.888;4.466;2024-02-21T07:17:39;9.90;99.90
18446;DHT22;9352;50.888;4.466;2024-02-21T07:20:07;9.90;99.90
18446;DHT22;9352;50.888;4.466;2024-02-21T07:22:34;9.90;99.90
18446;DHT22;9352;50.888;4.466;2024-02-21T07:25:01;9.90;99.90
18446;DHT22;9352;50.888;4.466;2024-02-21T07:27:28;9.80;99.90
18446;DHT22;9352;50.888;4.466;2024-02-21T07:29:57;9.80;99.90
18446;DHT22;9352;50.888;4.466;2024-02-21T07:32:24;9.80;99.90
18446;DHT22;9352;50.888;4.466;2024-02-21T07:34:52;9.80;99.90
18446;DHT22;9352;50.888;4.466;2024-02-21T07:37:19;9.80;99.90
18446;DHT22;9352;50.888;4.466;2024-02-21T07:39:45;9.80;99.90
18446;DHT22;9352;50.888;4.466;2024-02-21T07:42:12;9.80;99.90
18446;DHT22;9352;50.888;4.466;2024-02-21T07:44:39;9.80;99.90
18446;DHT22;9352;50.888;4.466;2024-02-21T07:47:06;9.80;99.90
18446;DHT22;9352;50.888;4.466;2024-02-21T07:49:40;9.80;99.90
18446;DHT22;9352;50.888;4.466;2024-02-21T07:52:08;9.80;99.90
18446;DHT22;9352;50.888;4.466;2024-02-21T07:54:35;9.80;99.90
18446;DHT22;9352;50.888;4.466;2024-02-21T07:57:02;9.80;99.90
18446;DHT22;9352;50.888;4.466;2024-02-21T07:59:29;9.80;99.90
18446;DHT22;9352;50.888;4.466;2024-02-21T08:01:56;9.80;99.90
18446;DHT22;9352;50.888;4.466;2024-02-21T08:04:24;9.80;99.90
18446;DHT22;9352;50.888;4.466;2024-02-21T08:06:52;9.80;99.90
18446;DHT22;9352;50.888;4.466;2024-02-21T08:09:22;9.90;99.90
18446;DHT22;9352;50.888;4.466;2024-02-21T08:11:49;9.90;99.90
18446;DHT22;9352;50.888;4.466;2024-02-21T08:14:16;9.90;99.90
18446;DHT22;9352;50.888;4.466;2024-02-21T08:16:43;9.90;99.90
18446;DHT22;9352;50.888;4.466;2024-02-21T08:19:11;9.90;99.90
18446;DHT22;9352;50.888;4.466;2024-02-21T08:21:37;9.90;99.90
18446;DHT22;9352;50.888;4.466;2024-02-21T08:24:05;9.90;99.90
18446;DHT22;9352;50.888;4.466;2024-02-21T08:26:33;9.90;99.90
18446;DHT22;9352;50.888;4.466;2024-02-21T08:29:01;9.90;99.90
18446;DHT22;9352;50.888;4.466;2024-02-21T08:31:28;10.00;99.90
18446;DHT22;9352;50.888;4.466;2024-02-21T08:33:57;10.00;99.90
18446;DHT22;9352;50.888;4.466;2024-02-21T08:36:28;10.00;99.90
18446;DHT22;9352;50.888;4.466;2024-02-21T08:38:55;10.00;99.90
18446;DHT22;9352;50.888;4.466;2024-02-21T08:41:23;10.00;99.90
18446;DHT22;9352;50.888;4.466;2024-02-21T08:43:51;10.00;99.90
18446;DHT22;9352;50.888;4.466;2024-02-21T08:46:19;10.10;99.90
18446;DHT22;9352;50.888;4.466;2024-02-21T08:48:47;10.10;99.90
18446;DHT22;9352;50.888;4.466;2024-02-21T08:51:14;10.20;99.90
18446;DHT22;9352;50.888;4.466;2024-02-21T08:53:41;10.20;99.90
18446;DHT22;9352;50.888;4.466;2024-02-21T08:56:07;10.20;99.90
18446;DHT22;9352;50.888;4.466;2024-02-21T08:58:35;10.20;99.90
18446;DHT22;9352;50.888;4.466;2024-02-21T09:01:04;10.20;99.90
18446;DHT22;9352;50.888;4.466;2024-02-21T09:03:31;10.30;99.90
18446;DHT22;9352;50.888;4.466;2024-02-21T09:05:57;10.30;99.90
18446;DHT22;9352;50.888;4.466;2024-02-21T09:08:25;10.30;99.90
18446;DHT22;9352;50.888;4.466;2024-02-21T09:10:52;10.30;99.90
18446;DHT22;9352;50.888;4.466;2024-02-21T09:13:19;10.30;99.90
18446;DHT22;9352;50.888;4.466;2024-02-21T09:15:46;10.30;99.90
18446;DHT22;9352;50.888;4.466;2024-02-21T09:18:15;10.40;99.90
18446;DHT22;9352;50.888;4.466;2024-02-21T09:20:42;10.40;99.90
18446;DHT22;9352;50.888;4.466;2024-02-21T09:23:09;10.40;99.90
18446;DHT22;9352;50.888;4.466;2024-02-21T09:25:36;10.40;99.90
18446;DHT22;9352;50.888;4.466;2024-02-21T09:28:03;10.40;99.90
18446;DHT22;9352;50.888;4.466;2024-02-21T09:30:31;10.40;99.90
18446;DHT22;9352;50.888;4.466;2024-02-21T09:32:58;10.50;99.90
18446;DHT22;9352;50.888;4.466;2024-02-21T09:35:28;10.60;99.90
18446;DHT22;9352;50.888;4.466;2024-02-21T09:37:55;10.60;99.90
18446;DHT22;9352;50.888;4.466;2024-02-21T09:40:22;10.70;99.90
18446;DHT22;9352;50.888;4.466;2024-02-21T09:42:55;10.80;99.90
18446;DHT22;9352;50.888;4.466;2024-02-21T09:45:25;10.80;99.90
18446;DHT22;9352;50.888;4.466;2024-02-21T09:50:55;11.00;99.90
18446;DHT22;9352;50.888;4.466;2024-02-21T09:53:24;11.00;99.90
18446;DHT22;9352;50.888;4.466;2024-02-21T09:55:52;11.10;99.90
18446;DHT22;9352;50.888;4.466;2024-02-21T09:58:19;11.10;99.90
18446;DHT22;9352;50.888;4.466;2024-02-21T10:00:46;11.20;99.90
18446;DHT22;9352;50.888;4.466;2024-02-21T10:03:13;11.20;99.90
18446;DHT22;9352;50.888;4.466;2024-02-21T10:05:47;11.20;99.90
18446;DHT22;9352;50.888;4.466;2024-02-21T10:08:16;11.30;99.90
18446;DHT22;9352;50.888;4.466;2024-02-21T10:10:44;11.30;99.90
18446;DHT22;9352;50.888;4.466;2024-02-21T10:13:24;11.40;99.90
18446;DHT22;9352;50.888;4.466;2024-02-21T10:16:01;11.40;99.90
18446;DHT22;9352;50.888;4.466;2024-02-21T10:18:28;11.40;99.90
18446;DHT22;9352;50.888;4.466;2024-02-21T10:21:03;11.40;99.90
18446;DHT22;9352;50.888;4.466;2024-02-21T10:23:43;11.50;99.90
18446;DHT22;9352;50.888;4.466;2024-02-21T10:26:10;11.50;99.90
18446;DHT22;9352;50.888;4.466;2024-02-21T10:28:37;11.60;99.90
18446;DHT22;9352;50.888;4.466;2024-02-21T10:31:08;11.60;99.90
18446;DHT22;9352;50.888;4.466;2024-02-21T10:33:35;11.60;99.90
18446;DHT22;9352;50.888;4.466;2024-02-21T10:36:07;11.70;99.90
18446;DHT22;9352;50.888;4.466;2024-02-21T10:38:35;11.80;99.90
18446;DHT22;9352;50.888;4.466;2024-02-21T10:41:04;11.80;99.90
18446;DHT22;9352;50.888;4.466;2024-02-21T10:43:37;11.80;99.90
18446;DHT22;9352;50.888;4.466;2024-02-21T10:46:06;11.90;99.90
18446;DHT22;9352;50.888;4.466;2024-02-21T10:48:41;11.90;99.90
18446;DHT22;9352;50.888;4.466;2024-02-21T10:51:15;11.80;99.90
18446;DHT22;9352;50.888;4.466;2024-02-21T10:53:45;11.80;99.90
18446;DHT22;9352;50.888;4.466;2024-02-21T10:56:27;11.80;99.90
18446;DHT22;9352;50.888;4.466;2024-02-21T10:58:57;11.90;99.90
18446;DHT22;9352;50.888;4.466;2024-02-21T11:01:24;12.00;99.90
18446;DHT22;9352;50.888;4.466;2024-02-21T11:03:53;12.00;99.90
18446;DHT22;9352;50.888;4.466;2024-02-21T11:06:21;12.10;99.90
18446;DHT22;9352;50.888;4.466;2024-02-21T11:09:02;12.20;99.90
18446;DHT22;9352;50.888;4.466;2024-02-21T11:11:33;12.20;99.90
18446;DHT22;9352;50.888;4.466;2024-02-21T11:14:07;12.30;99.90
18446;DHT22;9352;50.888;4.466;2024-02-21T11:16:36;12.40;99.90
18446;DHT22;9352;50.888;4.466;2024-02-21T11:19:05;12.30;99.90
18446;DHT22;9352;50.888;4.466;2024-02-21T11:21:36;12.30;99.90
18446;DHT22;9352;50.888;4.466;2024-02-21T11:24:03;12.20;99.90
18446;DHT22;9352;50.888;4.466;2024-02-21T11:26:32;12.30;99.90
18446;DHT22;9352;50.888;4.466;2024-02-21T11:29:00;12.40;99.90
18446;DHT22;9352;50.888;4.466;2024-02-21T11:31:38;12.40;99.90
18446;DHT22;9352;50.888;4.466;2024-02-21T11:34:08;12.30;99.90
18446;DHT22;9352;50.888;4.466;2024-02-21T11:36:36;12.20;99.90
18446;DHT22;9352;50.888;4.466;2024-02-21T11:39:03;12.10;99.90
18446;DHT22;9352;50.888;4.466;2024-02-21T11:41:32;12.00;99.90
18446;DHT22;9352;50.888;4.466;2024-02-21T11:43:59;12.00;99.90
18446;DHT22;9352;50.888;4.466;2024-02-21T11:46:26;12.10;99.90
18446;DHT22;9352;50.888;4.466;2024-02-21T11:48:53;12.00;99.90
18446;DHT22;9352;50.888;4.466;2024-02-21T11:51:21;12.00;99.90
18446;DHT22;9352;50.888;4.466;2024-02-21T11:53:50;11.80;99.90
18446;DHT22;9352;50.888;4.466;2024-02-21T11:56:18;11.80;99.90
18446;DHT22;9352;50.888;4.466;2024-02-21T11:58:46;11.70;99.90
18446;DHT22;9352;50.888;4.466;2024-02-21T12:01:14;11.70;99.90
18446;DHT22;9352;50.888;4.466;2024-02-21T12:03:42;11.70;99.90
18446;DHT22;9352;50.888;4.466;2024-02-21T12:06:16;11.80;99.90
18446;DHT22;9352;50.888;4.466;2024-02-21T12:08:45;11.80;99.90
18446;DHT22;9352;50.888;4.466;2024-02-21T12:11:17;11.80;99.90
18446;DHT22;9352;50.888;4.466;2024-02-21T12:13:46;11.70;99.90
18446;DHT22;9352;50.888;4.466;2024-02-21T12:16:15;11.60;99.90
18446;DHT22;9352;50.888;4.466;2024-02-21T12:18:43;11.60;99.90
18446;DHT22;9352;50.888;4.466;2024-02-21T12:21:10;11.50;99.90
18446;DHT22;9352;50.888;4.466;2024-02-21T12:23:38;11.50;99.90
18446;DHT22;9352;50.888;4.466;2024-02-21T12:26:05;11.50;99.90
18446;DHT22;9352;50.888;4.466;2024-02-21T12:28:33;11.50;99.90
18446;DHT22;9352;50.888;4.466;2024-02-21T12:31:02;11.50;99.90
18446;DHT22;9352;50.888;4.466;2024-02-21T12:33:30;11.50;99.90
18446;DHT22;9352;50.888;4.466;2024-02-21T12:35:57;11.60;99.90
18446;DHT22;9352;50.888;4.466;2024-02-21T12:38:24;11.60;99.90
18446;DHT22;9352;50.888;4.466;2024-02-21T12:40:51;11.60;99.90
18446;DHT22;9352;50.888;4.466;2024-02-21T12:43:18;11.60;99.90
18446;DHT22;9352;50.888;4.466;2024-02-21T12:45:45;11.60;99.90
18446;DHT22;9352;50.888;4.466;2024-02-21T12:48:13;11.60;99.90
18446;DHT22;9352;50.888;4.466;2024-02-21T12:50:41;11.60;99.90
18446;DHT22;9352;50.888;4.466;2024-02-21T12:53:14;11.60;99.90
18446;DHT22;9352;50.888;4.466;2024-02-21T12:55:41;11.60;99.90
18446;DHT22;9352;50.888;4.466;2024-02-21T12:58:08;11.60;99.90
18446;DHT22;9352;50.888;4.466;2024-02-21T13:00:35;11.70;99.90
18446;DHT22;9352;50.888;4.466;2024-02-21T13:03:03;11.80;99.90
18446;DHT22;9352;50.888;4.466;2024-02-21T13:05:32;11.80;99.90
18446;DHT22;9352;50.888;4.466;2024-02-21T13:07:58;11.80;99.90
18446;DHT22;9352;50.888;4.466;2024-02-21T13:10:25;11.80;99.90
18446;DHT22;9352;50.888;4.466;2024-02-21T13:12:52;11.80;99.90
18446;DHT22;9352;50.888;4.466;2024-02-21T13:15:20;11.80;99.90
18446;DHT22;9352;50.888;4.466;2024-02-21T13:17:47;11.90;99.90
18446;DHT22;9352;50.888;4.466;2024-02-21T13:20:14;11.90;99.90
18446;DHT22;9352;50.888;4.466;2024-02-21T13:22:42;11.80;99.90
18446;DHT22;9352;50.888;4.466;2024-02-21T13:25:09;11.80;99.90
18446;DHT22;9352;50.888;4.466;2024-02-21T13:27:36;11.80;99.90
18446;DHT22;9352;50.888;4.466;2024-02-21T13:30:03;11.70;99.90
18446;DHT22;9352;50.888;4.466;2024-02-21T13:32:32;11.70;99.90
18446;DHT22;9352;50.888;4.466;2024-02-21T13:34:59;11.60;99.90
18446;DHT22;9352;50.888;4.466;2024-02-21T13:37:28;11.60;99.90
18446;DHT22;9352;50.888;4.466;2024-02-21T13:39:56;11.60;99.90
18446;DHT22;9352;50.888;4.466;2024-02-21T13:42:23;11.60;99.90
18446;DHT22;9352;50.888;4.466;2024-02-21T13:44:53;11.50;99.90
18446;DHT22;9352;50.888;4.466;2024-02-21T13:47:20;11.60;99.90
18446;DHT22;9352;50.888;4.466;2024-02-21T13:49:47;11.50;99.90
18446;DHT22;9352;50.888;4.466;2024-02-21T13:52:15;11.50;99.90
18446;DHT22;9352;50.888;4.466;2024-02-21T13:54:42;11.40;99.90
18446;DHT22;9352;50.888;4.466;2024-02-21T13:57:10;11.40;99.90
18446;DHT22;9352;50.888;4.466;2024-02-21T13:59:37;11.40;99.90
18446;DHT22;9352;50.888;4.466;2024-02-21T14:02:05;11.30;99.90
18446;DHT22;9352;50.888;4.466;2024-02-21T14:04:33;11.30;99.90
18446;DHT22;9352;50.888;4.466;2024-02-21T14:07:00;11.30;99.90
18446;DHT22;9352;50.888;4.466;2024-02-21T14:09:27;11.20;99.90
18446;DHT22;9352;50.888;4.466;2024-02-21T14:11:55;11.20;99.90
18446;DHT22;9352;50.888;4.466;2024-02-21T14:14:23;11.20;99.90
18446;DHT22;9352;50.888;4.466;2024-02-21T14:16:50;11.20;99.90
18446;DHT22;9352;50.888;4.466;2024-02-21T14:19:17;11.20;99.90
18446;DHT22;9352;50.888;4.466;2024-02-21T14:21:44;11.10;99.90
18446;DHT22;9352;50.888;4.466;2024-02-21T14:24:11;11.10;99.90
18446;DHT22;9352;50.888;4.466;2024-02-21T14:26:38;11.10;99.90
18446;DHT22;9352;50.888;4.466;2024-02-21T14:29:06;11.10;99.90
18446;DHT22;9352;50.888;4.466;2024-02-21T14:31:35;11.10;99.90
18446;DHT22;9352;50.888;4.466;2024-02-21T14:34:02;11.00;99.90
18446;DHT22;9352;50.888;4.466;2024-02-21T14:36:28;11.00;99.90
18446;DHT22;9352;50.888;4.466;2024-02-21T14:38:55;11.00;99.90
18446;DHT22;9352;50.888;4.466;2024-02-21T14:41:22;10.90;99.90
18446;DHT22;9352;50.888;4.466;2024-02-21T14:43:50;10.90;99.90
18446;DHT22;9352;50.888;4.466;2024-02-21T14:46:17;10.90;99.90
18446;DHT22;9352;50.888;4.466;2024-02-21T14:48:45;10.80;99.90
18446;DHT22;9352;50.888;4.466;2024-02-21T14:51:12;10.70;99.90
18446;DHT22;9352;50.888;4.466;2024-02-21T14:53:39;10.70;99.90
18446;DHT22;9352;50.888;4.466;2024-02-21T14:56:12;10.70;99.90
18446;DHT22;9352;50.888;4.466;2024-02-21T14:58:40;10.60;99.90
18446;DHT22;9352;50.888;4.466;2024-02-21T15:01:07;10.60;99.90
18446;DHT22;9352;50.888;4.466;2024-02-21T15:03:34;10.60;99.90
18446;DHT22;9352;50.888;4.466;2024-02-21T15:06:03;10.50;99.90
18446;DHT22;9352;50.888;4.466;2024-02-21T15:08:30;10.50;99.90
18446;DHT22;9352;50.888;4.466;2024-02-21T15:10:57;10.40;99.90
18446;DHT22;9352;50.888;4.466;2024-02-21T15:13:24;10.40;99.90
18446;DHT22;9352;50.888;4.466;2024-02-21T15:15:51;10.40;99.90
18446;DHT22;9352;50.888;4.466;2024-02-21T15:18:18;10.40;99.90
18446;DHT22;9352;50.888;4.466;2024-02-21T15:20:45;10.40;99.90
18446;DHT22;9352;50.888;4.466;2024-02-21T15:23:13;10.40;99.90
18446;DHT22;9352;50.888;4.466;2024-02-21T15:25:41;10.30;99.90
18446;DHT22;9352;50.888;4.466;2024-02-21T15:28:09;10.30;99.90
18446;DHT22;9352;50.888;4.466;2024-02-21T15:30:37;10.30;99.90
18446;DHT22;9352;50.888;4.466;2024-02-21T15:33:04;10.30;99.90
18446;DHT22;9352;50.888;4.466;2024-02-21T15:35:31;10.30;99.90
18446;DHT22;9352;50.888;4.466;2024-02-21T15:37:59;10.30;99.90
18446;DHT22;9352;50.888;4.466;2024-02-21T15:40:27;10.30;99.90
18446;DHT22;9352;50.888;4.466;2024-02-21T15:42:55;10.20;99.90
18446;DHT22;9352;50.888;4.466;2024-02-21T15:45:21;10.20;99.90
18446;DHT22;9352;50.888;4.466;2024-02-21T15:47:48;10.10;99.90
18446;DHT22;9352;50.888;4.466;2024-02-21T15:50:16;10.10;99.90
18446;DHT22;9352;50.888;4.466;2024-02-21T15:52:44;10.10;99.90
18446;DHT22;9352;50.888;4.466;2024-02-21T15:55:11;10.10;99.90
18446;DHT22;9352;50.888;4.466;2024-02-21T15:57:40;10.00;99.90
18446;DHT22;9352;50.888;4.466;2024-02-21T16:00:07;10.00;99.90